createdAt,value
2022-10-29T00:02:26.000Z,6
2022-10-29T00:07:21.000Z,5.2
2022-10-29T00:12:15.000Z,5.5
2022-10-29T00:17:10.000Z,5.2
2022-10-29T00:22:04.000Z,5.9
2022-10-29T00:26:59.000Z,5.3
2022-10-29T00:31:53.000Z,5.2
2022-10-29T00:36:48.000Z,5.8
2022-10-29T00:41:43.000Z,6.6
2022-10-29T00:46:37.000Z,5.9
2022-10-29T00:51:32.000Z,5.1
2022-10-29T00:56:26.000Z,5.6
2022-10-29T01:01:19.000Z,6
2022-10-29T01:06:14.000Z,5.3
2022-10-29T01:11:09.000Z,5.5
2022-10-29T01:16:01.000Z,4.9
2022-10-29T01:20:55.000Z,5.9
2022-10-29T01:25:50.000Z,5
2022-10-29T01:30:44.000Z,5.8
2022-10-29T01:35:37.000Z,6
2022-10-29T01:40:32.000Z,5.4
2022-10-29T01:45:26.000Z,5.9
2022-10-29T01:50:21.000Z,6.4
2022-10-29T01:55:15.000Z,5.3
2022-10-29T02:00:09.000Z,5.4
2022-10-29T02:05:03.000Z,5.8
2022-10-29T02:09:58.000Z,5.3
2022-10-29T02:14:52.000Z,6.3
2022-10-29T02:19:47.000Z,6
2022-10-29T02:24:41.000Z,5.4
2022-10-29T02:29:36.000Z,6
2022-10-29T02:34:30.000Z,5.8
2022-10-29T02:39:25.000Z,5.8
2022-10-29T02:44:18.000Z,5.8
2022-10-29T02:49:13.000Z,6.1
2022-10-29T02:54:07.000Z,6
2022-10-29T02:59:01.000Z,5.9
2022-10-29T03:03:56.000Z,5.5
2022-10-29T03:08:50.000Z,6
2022-10-29T03:13:44.000Z,6.1
2022-10-29T03:18:39.000Z,6
2022-10-29T03:23:33.000Z,5.6
2022-10-29T03:28:27.000Z,5.5
2022-10-29T03:33:22.000Z,6.1
2022-10-29T03:38:17.000Z,5.5
2022-10-29T03:43:11.000Z,6.5
2022-10-29T03:48:06.000Z,6
2022-10-29T03:52:58.000Z,5.3
2022-10-29T03:57:53.000Z,5.2
2022-10-29T04:02:47.000Z,6.5
2022-10-29T04:07:41.000Z,6.4
2022-10-29T04:12:36.000Z,5.4
2022-10-29T04:17:30.000Z,5.7
2022-10-29T04:27:17.000Z,5.2
2022-10-29T04:32:12.000Z,6.2
2022-10-29T04:37:06.000Z,6.3
2022-10-29T04:42:00.000Z,5.3
2022-10-29T04:46:54.000Z,5.8
2022-10-29T04:51:49.000Z,5.3
2022-10-29T04:56:44.000Z,5.7
2022-10-29T05:01:38.000Z,5.5
2022-10-29T05:06:33.000Z,5.7
2022-10-29T05:11:28.000Z,5.5
2022-10-29T05:16:22.000Z,5.2
2022-10-29T05:21:17.000Z,5.3
2022-10-29T05:26:11.000Z,5.4
2022-10-29T05:31:09.000Z,5.8
2022-10-29T05:45:31.000Z,5.1
2022-10-29T05:50:26.000Z,5.3
2022-10-29T05:55:21.000Z,5.4
2022-10-29T06:00:16.000Z,5.3
2022-10-29T06:14:52.000Z,5.6
2022-10-29T06:19:47.000Z,6.2
2022-10-29T06:34:24.000Z,4.7
2022-10-29T06:39:19.000Z,4.8
2022-10-29T06:53:56.000Z,5.5
2022-10-29T06:58:51.000Z,6.6
2022-10-29T07:13:27.000Z,7.8
2022-10-29T07:18:21.000Z,8.9
2022-10-29T07:23:16.000Z,7.9
2022-10-29T07:37:53.000Z,6.3
2022-10-29T07:42:48.000Z,7
2022-10-29T07:57:27.000Z,7.7
2022-10-29T08:02:22.000Z,7.6
2022-10-29T08:07:17.000Z,7.2
2022-10-29T08:12:10.000Z,7
2022-10-29T08:17:05.000Z,6.9
2022-10-29T08:31:42.000Z,5.8
2022-10-29T08:36:37.000Z,6
2022-10-29T08:41:31.000Z,5.8
2022-10-29T08:46:25.000Z,5.6
2022-10-29T08:51:20.000Z,5.2
2022-10-29T08:56:15.000Z,5.3
2022-10-29T09:01:09.000Z,4.8
2022-10-29T09:06:03.000Z,5
2022-10-29T09:10:58.000Z,5.4
2022-10-29T09:15:53.000Z,5.7
2022-10-29T09:20:47.000Z,5
2022-10-29T09:25:41.000Z,5
2022-10-29T09:30:35.000Z,5.2
2022-10-29T09:35:30.000Z,4.6
2022-10-29T09:40:25.000Z,4.6
2022-10-29T09:45:19.000Z,4.7
2022-10-29T09:50:14.000Z,5.1
2022-10-29T09:55:17.000Z,4.5
2022-10-29T10:00:02.000Z,4.2
2022-10-29T10:04:57.000Z,4.2
2022-10-29T10:09:51.000Z,4.8
2022-10-29T10:24:28.000Z,5.2
2022-10-29T10:29:23.000Z,4.4
2022-10-29T10:34:18.000Z,4.6
2022-10-29T10:48:56.000Z,4.2
2022-10-29T10:53:52.000Z,4.3
2022-10-29T10:58:47.000Z,4.2
2022-10-29T11:03:42.000Z,4.3
2022-10-29T11:08:36.000Z,4.6
2022-10-29T11:13:31.000Z,4.4
2022-10-29T11:18:26.000Z,4.3
2022-10-29T11:23:20.000Z,4.6
2022-10-29T11:28:15.000Z,4
2022-10-29T11:33:07.000Z,5
2022-10-29T11:38:00.000Z,4.5
2022-10-29T11:42:54.000Z,4.4
2022-10-29T11:47:49.000Z,4.5
2022-10-29T11:52:45.000Z,4.5
2022-10-29T11:57:39.000Z,4.5
2022-10-29T12:02:33.000Z,4.1
2022-10-29T12:07:28.000Z,4.1
2022-10-29T12:12:23.000Z,4.5
2022-10-29T12:17:18.000Z,5.2
2022-10-29T12:22:13.000Z,4.5
2022-10-29T12:27:07.000Z,4.3
2022-10-29T12:32:02.000Z,3.7
2022-10-29T12:36:57.000Z,4.2
2022-10-29T12:41:52.000Z,3.8
2022-10-29T12:46:47.000Z,4.2
2022-10-29T12:51:41.000Z,4.3
2022-10-29T12:56:35.000Z,4
2022-10-29T13:01:29.000Z,4.3
2022-10-29T13:06:23.000Z,4.4
2022-10-29T13:11:18.000Z,4
2022-10-29T13:16:13.000Z,4.1
2022-10-29T13:21:07.000Z,4
2022-10-29T13:26:02.000Z,5.1
2022-10-29T13:30:57.000Z,4.2
2022-10-29T13:35:52.000Z,5
2022-10-29T13:40:47.000Z,4.4
2022-10-29T13:45:41.000Z,3.8
2022-10-29T13:50:36.000Z,4.5
2022-10-29T14:05:11.000Z,4.6
2022-10-29T14:10:03.000Z,4
2022-10-29T14:14:58.000Z,4.5
2022-10-29T14:19:53.000Z,4.9
2022-10-29T14:24:45.000Z,5.5
2022-10-29T14:39:21.000Z,3.8
2022-10-29T14:44:16.000Z,3.8
2022-10-29T14:49:11.000Z,3.6
2022-10-29T15:03:38.000Z,3.6
2022-10-29T15:08:33.000Z,3.9
2022-10-29T15:13:28.000Z,3.7
2022-10-29T15:28:04.000Z,4.4
2022-10-29T15:42:42.000Z,3.1
2022-10-29T16:11:57.000Z,3.2
2022-10-29T16:26:36.000Z,3.7
2022-10-29T16:41:10.000Z,3.8
2022-10-29T16:55:40.000Z,3.3
2022-10-29T17:10:16.000Z,3.5
2022-10-29T17:24:55.000Z,3.4
2022-10-29T17:39:34.000Z,3.8
2022-10-29T17:54:13.000Z,3.6
2022-10-29T18:08:51.000Z,9.3
2022-10-29T18:23:30.000Z,5.1
2022-10-29T18:38:07.000Z,4.5
2022-10-29T18:52:46.000Z,3.5
2022-10-29T19:07:24.000Z,4.7
2022-10-29T19:22:03.000Z,4.2
2022-10-29T19:36:31.000Z,4.2
2022-10-29T19:51:08.000Z,3.5
2022-10-29T20:05:44.000Z,3.8
2022-10-29T20:20:20.000Z,4.1
2022-10-29T20:35:00.000Z,3
2022-10-29T20:49:39.000Z,3.6
2022-10-29T21:04:19.000Z,3.4
2022-10-29T21:18:59.000Z,3.6
2022-10-29T21:33:38.000Z,3.8
2022-10-29T21:48:16.000Z,3.6
2022-10-29T22:02:54.000Z,3.8
2022-10-29T22:17:32.000Z,4.2
2022-10-29T22:32:09.000Z,4
2022-10-29T22:46:48.000Z,3.9
2022-10-29T23:01:26.000Z,3.9
2022-10-29T23:16:06.000Z,3.5
2022-10-29T23:30:46.000Z,3.7
2022-10-29T23:45:22.000Z,4.1
